Terminal Aerodrome Forecast
Issued by NWS

Current Version | Previous Version | Text Only | Print | Product List | Glossary Off
Versions: 1 2 3 4 5 6 7 8 9 10 11 12 13 14 15 16 17 18 19 20 21

000
FTUS41 KILN 102300
TAFLUK
TAF
KLUK 102320Z 1100/1124 00000KT P6SM SKC
      TEMPO 1108/1112 2SM BR
     FM111500 15003KT P6SM SCT060=

USA.gov is the U.S. government's official web portal to all federal, state and local government web resources and services.